Weather observations for the past three days for
Warsaw, Warsaw Municipal Airport
Metric (Imperial)
Date Time (edt) Wind (kph) Vis. (km) Weather Sky Cond. Temperature (ºC) Relative Humidity Wind Chill (°C) Heat Index (°C) Pressure Precipitation (cm)
Air Dwpt 6 hour altimeter (cm) sea level (mb) 1 hr 3 hr 6 hr
Max. Min.
07 15:35 W 20 G 28 16.09 Partly Cloudy SCT070 SCT080 14.2 -0.1 38% 76 0.0
07 15:15 SW 11 16.09 Mostly Cloudy SCT070 BKN080 13.1 -1 38% 76 0.0
07 14:55 W 11 16.09 Mostly Cloudy BKN065 13.2 -0.2 40% 76.02 0.0
07 14:35 W 9 G 26 16.09 Partly Cloudy SCT065 SCT075 13.5 -0.1 40% 76.05 0.0
07 14:15 W 17 G 26 16.09 Partly Cloudy SCT070 SCT075 13.8 0 39% 76.05 0.0
07 13:55 W 19 G 33 16.09 Partly Cloudy SCT060 SCT070 12.5 -0.6 41% 76.05 0.0
07 13:35 NW 20 G 31 16.09 Fair CLR 12.8 -0.7 40% 76.07 0.0
07 13:15 W 11 16.09 Fair CLR 12.9 0 41% 76.1 0.0
07 12:55 NW 13 16.09 Fair CLR 12.2 -0.4 42% 76.12 0.0
07 12:35 W 17 G 28 16.09 Fair CLR 11.7 -0.9 42% 76.17 0.0
07 12:15 NW 28 G 35 16.09 Fair CLR 11.6 -0.9 42% 76.17 0.0
07 11:55 W 22 G 28 16.09 Fair CLR 11.2 -0.9 43% 76.17 0.0
07 11:35 NW 20 G 26 16.09 Fair CLR 10.9 -0.7 45% 76.17 0.0
07 11:15 W 17 16.09 Fair CLR 10.4 -1.2 45% 76.17 0.0
07 10:55 W 24 16.09 Fair CLR 10.1 -0.5 48% 76.17 0.0
07 10:35 W 17 G 28 16.09 Fair CLR 9.5 -1.1 48% 7 76.17 0.0
07 10:15 W 15 16.09 Fair CLR 8.8 -1.4 49% 7 76.17 0.0
07 09:55 W 17 16.09 Fair CLR 8.6 -0.9 52% 6 76.17 0.0
07 09:35 W 17 16.09 Fair CLR 8.1 -0.3 56% 6 76.17 0.0
07 09:15 NW 15 16.09 Fair CLR 7.3 -0.8 57% 5 76.17 0.0
07 08:55 W 11 16.09 Fair CLR 6.8 -0.2 61% 5 76.17 0.0
07 08:35 W 9 16.09 Fair CLR 6.1 0 65% 4 76.17 0.0
07 08:15 W 11 16.09 Fair CLR 5.4 -0.1 68% 3 76.17 0.0
07 07:55 W 9 16.09 Fair CLR 4.6 0 72% 3 76.17 0.0
07 07:35 W 6 16.09 Fair CLR 3.3 -0.2 78% 76.17 0.0
07 07:15 W 7 16.09 Fair CLR 2.4 -1 79% 1 76.12 0.0
07 06:55 W 7 16.09 Fair CLR 2.6 -1 77% 1 76.12 0.0
07 06:35 W 9 16.09 Fair CLR 2.9 -1.2 75% 1 76.12 0.0
07 06:15 W 7 16.09 Fair CLR 3 -1.5 73% 1 76.12 0.0
07 05:55 W 6 16.09 Fair CLR 3 -1.4 73% 76.12 0.0
07 05:35 W 7 16.09 Fair CLR 2.4 -1.2 77% 1 76.12 0.0
07 05:15 W 9 16.09 Fair CLR 2.4 -1.5 76% 0 76.1 0.0
07 04:55 W 11 16.09 Fair CLR 2.2 -1.5 77% -1 76.12 0.0
07 04:35 W 11 16.09 Fair CLR 2.2 -1.6 76% -1 76.12 0.0
07 04:15 W 9 16.09 Fair CLR 2.5 -1.5 75% 0 76.1 0.0
07 03:55 W 11 16.09 Fair CLR 2.4 -1.4 76% -0 76.12 0.0
07 03:35 W 13 16.09 Fair CLR 2.8 -1.1 76% -0 76.12 0.0
07 03:15 W 13 16.09 Fair CLR 2.9 -0.9 76% -0 76.12 0.0
07 02:55 W 9 16.09 Fair CLR 3.2 -1 74% 1 76.12 0.0
07 02:35 NW 11 16.09 Fair CLR 4.9 -1.1 65% 3 76.12 0.0
07 02:15 NW 11 16.09 Fair CLR 5.1 -0.9 66% 3 76.12 0.0
07 01:55 NW 13 16.09 Fair CLR 5.8 -0.7 63% 3 76.12 0.0
07 01:35 W 11 16.09 Fair CLR 5.5 -0.4 66% 3 76.12 0.0
07 01:15 W 15 16.09 Fair CLR 5.9 -0.1 66% 3 76.12 0.0
07 00:55 NW 15 16.09 Fair CLR 6.5 0 64% 4 76.12 0.0
07 00:35 W 11 16.09 Fair CLR 5.1 0 70% 3 76.12 0.0
07 00:15 W 9 16.09 Fair CLR 4.6 0 72% 3 76.1 0.0
06 23:55 W 9 16.09 Fair CLR 5.5 -0.3 67% 4 76.1 0.0
06 23:35 W 7 16.09 Fair CLR 5.8 -0.2 66% 5 76.1 0.0
06 23:15 W 9 16.09 Fair CLR 5.7 0 67% 4 76.1 0.0
06 22:55 W 11 16.09 Partly Cloudy SCT080 6.7 0 63% 5 76.1 0.0
06 22:35 W 11 16.09 Fair CLR 8 -0.4 56% 6 76.07 0.0
06 22:15 W 13 16.09 Fair CLR 8.2 -0.4 55% 6 76.07 0.0
06 21:55 W 9 16.09 Fair CLR 8.1 0 57% 7 76.05 0.0
06 21:35 W 11 16.09 Partly Cloudy SCT080 8.8 0 54% 7 76.05 0.0
06 21:15 W 13 16.09 Overcast OVC080 10 0.1 51% 8 76.05 0.0
06 20:55 W 11 16.09 Overcast OVC080 9.9 0.1 51% 9 76.05 0.0
06 20:35 W 15 16.09 Mostly Cloudy BKN080 BKN120 11 -0.3 46% 76.02 0.0
06 20:15 W 15 16.09 Mostly Cloudy SCT070 BKN080 11.4 -0.4 44% 76 0.0
06 19:55 W 17 16.09 Mostly Cloudy SCT070 BKN080 11.9 -1 41% 76 0.0
06 19:35 W 9 16.09 Overcast SCT070 OVC080 11.9 -0.7 42% 76 0.0
06 19:15 W 17 16.09 Mostly Cloudy SCT070 BKN080 12.2 -0.6 42% 76 0.0
06 18:55 W 15 16.09 Mostly Cloudy SCT070 BKN080 12 -0.6 42% 76 0.0
06 18:35 NW 7 16.09 Mostly Cloudy BKN070 BKN080 12.6 -0.9 40% 76 0.0
06 18:15 NW 13 16.09 Overcast OVC070 12.3 -0.9 40% 76 0.0
06 17:55 NW 9 16.09 Overcast OVC070 12.3 -1.4 39% 76 0.0
06 17:35 W 9 16.09 Overcast BKN070 OVC080 12.7 -1.5 38% 76 0.0
06 17:15 SW 7 16.09 Mostly Cloudy BKN070 12.6 -1.1 39% 76 0.0
06 16:55 W 19 16.09 Mostly Cloudy SCT075 BKN080 13 -0.5 40% 76 0.0
06 16:35 NW 15 16.09 Mostly Cloudy BKN065 BKN080 13 -0.8 39% 76.02 0.0
06 16:15 W 9 G 26 16.09 Mostly Cloudy BKN065 BKN075 14 -0.1 38% 76.02 0.0
06 15:55 N 7 16.09 Partly Cloudy SCT065 13.5 -0.3 39% 76.02 0.0
06 15:35 W 15 16.09 Partly Cloudy SCT065 13.4 -0.5 39% 76.02 0.0
06 15:15 W 20 16.09 Partly Cloudy SCT065 13.4 -0.4 39% 76.05 0.0
06 14:55 W 7 16.09 Partly Cloudy SCT065 13 0.1 41% 76.05 0.0
06 14:35 W 15 16.09 Partly Cloudy SCT065 12.8 -0.7 40% 76.05 0.0
06 14:15 W 9 16.09 Fair CLR 12 -2 38% 76.05 0.0
06 13:55 W 17 16.09 Fair CLR 11.9 -1.3 40% 76.05 0.0
06 13:35 W 7 16.09 Fair CLR 11.9 -1.5 40% 76.05 0.0
06 13:15 NW 11 16.09 Fair CLR 11.1 -2.2 40% 76.05 0.0
06 12:55 Calm 16.09 Fair CLR 11 -3.2 37% 76.05 0.0
06 12:35 NW 9 16.09 Fair CLR 11.5 -1.6 40% 76.05 0.0
06 12:15 NW 6 16.09 Fair CLR 11.1 -2.6 39% 76.07 0.0
06 11:55 NW 11 16.09 Fair CLR 11.3 -1.9 40% 76.05 0.0
06 11:35 NW 7 16.09 Fair CLR 10.4 -1.8 43% 76.05 0.0
06 11:15 NW 11 16.09 Fair CLR 10.4 -1.9 43% 76.05 0.0
06 10:55 N 15 16.09 Fair CLR 10.2 -2.1 42% 76.05 0.0
06 10:35 N 7 16.09 Fair CLR 10.1 -0.8 47% 76.05 0.0
06 10:15 N 9 16.09 Fair CLR 9.9 -1.3 46% 9 76.02 0.0
06 09:55 N 11 16.09 Fair CLR 9.6 -1.8 45% 8 76 0.0
06 09:35 N 11 16.09 Fair CLR 9.2 -0.7 50% 8 76 0.0
06 09:15 N 9 16.09 Fair CLR 8.5 -0.9 52% 7 75.97 0.0
06 08:55 N 9 16.09 Fair CLR 8.3 -0.5 54% 7 75.97 0.0
06 08:35 NE 9 16.09 Fair CLR 7.6 -0.1 59% 6 75.95 0.0
06 08:15 NE 9 16.09 Fair CLR 7.6 0.7 62% 6 75.95 0.0
06 07:55 Calm 16.09 Fair CLR 6.6 0.8 67% 75.92 0.0
06 07:35 Calm 16.09 Fair CLR 5.9 1 71% 75.9 0.0
06 07:15 Calm 16.09 Fair CLR 5.1 0.9 75% 75.87 0.0
06 06:55 Calm 16.09 Fair CLR 5.2 1.1 75% 75.84 0.0
06 06:35 N 6 16.09 Fair CLR 5.3 1.8 78% 75.82 0.0
06 06:15 Calm 16.09 Fair CLR 5.9 2.5 79% 75.82 0.0
06 05:55 Calm 16.09 Fair CLR 6.5 2.3 75% 75.79 0.0
06 05:35 N 7 16.09 Fair CLR 7 4.2 83% 6 75.82 0.0
06 05:15 Calm 16.09 Partly Cloudy SCT090 7 5.5 90% 75.79 0.0
06 04:55 W 7 16.09 Overcast OVC090 7.3 6 92% 6 75.79 0.0
06 04:35 W 6 16.09 Overcast OVC080 7.5 6 90% 75.77 0.0
06 04:15 Calm 16.09 Overcast OVC080 7.3 6.3 93% 75.74 0.0
06 03:55 Calm 16.09 Overcast OVC080 7.2 6.1 93% 75.72 0.0
06 03:35 Calm 16.09 Overcast OVC080 7.5 6.2 92% 75.72 0.0
06 03:15 Calm 16.09 Overcast OVC080 7.5 6.1 91% 75.74 0.0
06 02:55 Calm 16.09 Overcast OVC080 7.3 6.2 93% 75.72 0.0
06 02:35 NW 6 16.09 Overcast OVC080 7.5 6.2 92% 75.74 0.0
06 02:15 Calm 16.09 Overcast OVC080 7.2 6.1 93% 75.77 0.0
06 01:55 Calm 16.09 Overcast BKN080 OVC100 7.5 6 90% 75.74 0.0
06 01:35 Calm 16.09 Overcast SCT060 OVC080 7.5 6.1 91% 75.79 0.0
06 01:15 Calm 16.09 Overcast SCT060 OVC080 7.6 6 90% 75.79 0.0
06 00:35 Calm 16.09 Overcast OVC080 7.3 5.9 91% 75.77 0.0
06 00:15 Calm 16.09 Overcast OVC080 7.4 6 91% 75.74 0.0
05 23:55 Calm 16.09 Overcast OVC080 7.5 5.5 87% 75.74 0.0
05 23:35 Calm 16.09 Overcast OVC080 7.5 5.9 90% 75.74 0.0
05 23:15 Calm 16.09 Overcast OVC080 7.5 5.6 88% 75.74 0.0
05 22:55 Calm 16.09 Overcast OVC080 7.5 5.3 86% 75.74 0.0
05 22:35 Calm 16.09 Overcast OVC070 7.5 5.9 90% 75.74 0.0
05 22:15 Calm 16.09 Overcast OVC070 7.6 5.2 85% 75.74 0.0
05 21:55 Calm 16.09 Overcast OVC070 7.5 5.6 88% 75.72 0.0
05 21:35 Calm 16.09 Overcast OVC070 7.4 5.5 88% 75.72 0.0
05 21:15 Calm 16.09 Overcast OVC070 7.7 4.6 81% 75.69 0.0
05 20:55 Calm 16.09 Light Rain OVC070 7.5 5 84% 75.67 0.0
05 20:35 E 6 16.09 Overcast SCT050 BKN070 OVC080 7.6 4.4 80% 75.67 0.0
05 20:15 Calm 16.09 Overcast SCT050 BKN070 OVC080 7.7 4.9 83% 75.67 0.0
05 19:55 Calm 16.09 Light Rain SCT035 BKN060 OVC080 7.5 4.3 80% 75.67 0.0 0.08
05 19:35 N 7 16.09 Light Rain SCT033 BKN055 OVC065 7.6 4 78% 7 75.67 0.0 0.08
05 19:15 N 11 16.09 Rain SCT055 OVC080 8.5 2.7 67% 7 75.69 0.0 0.03
05 18:55 N 9 16.09 Light Rain BKN080 9.9 1.6 57% 9 75.69 0.0
05 18:35 N 9 16.09 Partly Cloudy SCT090 10.5 1.5 54% 75.69 0.0
05 18:15 N 15 16.09 Mostly Cloudy SCT055 SCT080 BKN090 10.7 1.8 54% 75.69 0.0
05 17:55 N 9 16.09 Overcast BKN055 OVC075 11 3.3 59% 75.69 0.0 0.05
05 17:35 NW 7 16.09 Light Rain SCT035 OVC055 11.1 7.4 78% 75.69 0.0 0.05
05 17:15 W 9 16.09 Rain SCT050 BKN065 OVC075 10.6 7.5 81% 75.67 0.0 0.05
05 16:55 NW 11 16.09 Light Rain SCT050 SCT060 OVC075 11 6.2 73% 75.67 0.0
05 16:35 NW 9 16.09 Light Rain SCT060 OVC075 11.6 5.6 67% 75.64 0.0
05 16:15 W 7 16.09 Overcast BKN060 OVC075 11.6 5.9 68% 75.67 0.0
05 15:55 NW 11 16.09 Overcast OVC075 11.6 5.5 66% 75.67 0.0
05 15:35 NW 6 16.09 Overcast BKN085 OVC100 11.2 5.3 67% 75.69 0.0
05 15:15 NW 9 16.09 Overcast SCT070 OVC095 10.5 4.7 68% 75.72 0.0
05 14:55 NW 11 16.09 Overcast OVC080 10 4.5 69% 9 75.72 0.0
05 14:35 NW 11 16.09 Overcast OVC080 9.8 4.2 68% 8 75.72 0.0
05 14:15 NW 9 16.09 Mostly Cloudy BKN080 10.2 4.6 68% 75.72 0.0
05 13:55 N 9 16.09 Fair CLR 10.1 4.5 68% 75.72 0.0
05 13:35 NW 11 16.09 Partly Cloudy SCT085 9.5 4.2 70% 8 75.72 0.0
05 13:15 N 9 16.09 Mostly Cloudy BKN085 9.2 5.1 76% 8 75.74 0.0
05 12:55 N 11 16.09 Partly Cloudy SCT018 SCT030 SCT040 8.6 4.6 76% 7 75.74 0.0
05 12:35 N 13 16.09 Light Rain SCT023 BKN049 OVC080 8.8 5.1 78% 7 75.72 0.0
05 12:15 N 15 16.09 Mostly Cloudy BKN080 9 3.6 69% 7 75.69 0.0
05 11:55 N 6 16.09 Mostly Cloudy BKN080 9.1 3.6 69% 75.67 0.0
05 11:35 N 13 16.09 Overcast OVC080 9.7 3.7 67% 8 75.67 0.0
05 11:15 N 11 16.09 Overcast OVC080 9.8 3.6 66% 8 75.67 0.0
05 10:55 NW 13 16.09 Overcast OVC080 9.8 3.9 67% 8 75.72 0.0
05 10:35 NW 9 16.09 Overcast OVC080 9.9 3.3 64% 9 75.72 0.0
05 10:15 NW 11 16.09 Overcast OVC080 10.1 3.9 66% 75.69 0.0
05 09:55 NW 13 16.09 Overcast OVC080 10.5 3.9 64% 75.67 0.0
05 09:35 NW 15 G 26 16.09 Overcast OVC080 10.3 3.4 63% 75.67 0.0
05 09:15 NW 19 16.09 Overcast OVC080 10.8 4.2 64% 75.64 0.0
05 08:55 NW 15 16.09 Partly Cloudy SCT080 11.2 3.6 60% 75.57 0.0
05 08:35 N 7 16.09 Fair CLR 11.2 4.6 64% 75.49 0.0
05 08:15 Calm 16.09 Fair CLR 11.1 4.3 63% 75.44 0.0
05 07:55 W 6 16.09 Fair CLR 10.6 5.8 72% 75.49 0.0
05 07:35 NW 13 16.09 Partly Cloudy SCT014 11.2 6.4 73% 75.46 0.0
05 07:15 NW 19 16.09 Mostly Cloudy SCT009 BKN016 11.7 10.5 92% 75.44 0.0
05 06:55 W 15 16.09 Partly Cloudy SCT009 SCT016 11.6 10.8 95% 75.44 0.0
05 06:35 W 13 16.09 Fair CLR 11.8 11 95% 75.41 0.0
05 06:15 W 13 16.09 Fair CLR 12 11.1 94% 75.36 0.0
05 05:55 W 9 16.09 Fair CLR 12.1 11.2 94% 75.34 0.0
05 05:35 W 11 16.09 Fair CLR 12.2 11.8 97% 75.34 0.0
05 05:15 W 9 16.09 Fair CLR 12.1 11.8 98% 75.34 0.0
05 04:55 SW 6 16.09 Fair CLR 12.1 11.8 98% 75.29 0.0
05 04:35 Calm 16.09 Fair CLR 12.2 12 99% 75.29 0.0
05 04:15 SW 6 16.09 Fair CLR 12.5 12.1 97% 75.29 0.0
05 03:55 SW 7 16.09 Mostly Cloudy BKN080 12.5 12.2 98% 75.29 0.0
05 03:35 SW 11 16.09 Mostly Cloudy BKN080 12.5 12.2 98% 75.29 0.0
05 03:15 SW 11 16.09 Mostly Cloudy BKN080 12.5 12.2 98% 75.26 0.0
05 02:55 SW 6 16.09 Partly Cloudy SCT080 SCT090 12.5 12.1 97% 75.26 0.0 0.03
05 02:35 S 9 16.09 Partly Cloudy SCT090 SCT110 12.5 12.2 98% 75.21 0.0 0.03
05 02:15 SW 11 16.09 Overcast OVC090 12.6 12.3 98% 75.21 0.0 0.03
05 01:35 SW 15 11.27 Rain OVC080 12.8 12.5 98% 75.26 0.0 0.2
05 01:15 SW 13 16.09 Rain OVC080 12.9 12.5 97% 75.21 0.0 0.08
05 00:55 SW 13 16.09 Rain OVC080 13 12.7 98% 75.26 0.0 0.23
05 00:15 W 13 16.09 Heavy Rain SCT039 BKN065 OVC080 13.6 12.1 91% 75.26 0.0 0.1
04 23:55 W 22 11.27 Rain SCT036 BKN070 OVC080 14 12.1 88% 75.34 0.0 0.3
04 23:35 W 20 G 39 16.09 Rain SCT055 BKN070 OVC080 14.7 11.6 82% 75.31 0.0 0.15
04 23:15 W 24 G 57 16.09 Rain SCT055 OVC070 15.5 11.6 78% 75.31 0.0 0.1
04 22:55 SW 13 16.09 Overcast OVC070 20.6 9 48% 75.18 0.0
04 22:35 SW 11 16.09 Overcast BKN070 OVC080 20.5 9.4 49% 75.16 0.0
04 22:15 SW 11 16.09 Mostly Cloudy BKN070 BKN080 20.7 9.6 49% 75.16 0.0
04 21:55 SW 9 16.09 Mostly Cloudy SCT070 BKN080 20.5 10 51% 75.13 0.0
04 21:35 SW 6 16.09 Overcast OVC070 20.5 10.2 52% 75.13 0.0
04 21:15 SW 7 16.09 Mostly Cloudy BKN070 20.7 10 50% 75.11 0.0
04 20:55 SW 11 16.09 Partly Cloudy SCT070 21 10 50% 75.08 0.0
04 20:35 SW 15 16.09 Partly Cloudy SCT070 21.3 11 52% 75.11 0.0
04 20:15 SW 15 G 31 16.09 Fair CLR 21.5 11 51% 75.11 0.0
04 19:55 SW 11 G 26 16.09 Fair CLR 21.6 11 51% 75.11 0.0
04 19:35 SW 19 G 30 16.09 Fair CLR 21.8 11 50% 75.08 0.0
04 19:15 SW 22 G 44 16.09 Fair CLR 21.6 10.5 49% 75.11 0.0
04 18:55 SW 20 G 50 16.09 Partly Cloudy SCT055 22.5 10.2 46% 75.13 0.0
04 18:35 SW 35 G 57 16.09 Partly Cloudy and Breezy SCT065 22.7 9.5 43% 75.13 0.0
04 17:55 SW 28 G 50 16.09 Partly Cloudy SCT100 23.6 9.4 41% 75.16 0.0
04 17:35 SW 37 G 54 16.09 Fair and Breezy CLR 24 9.2 39% 25 75.13 0.0
04 17:15 SW 35 G 56 16.09 Fair and Breezy CLR 24.5 9.4 38% 25 75.13 0.0
04 16:55 SW 37 G 56 16.09 Fair and Breezy CLR 24.4 9.5 39% 25 75.11 0.0
04 16:35 SW 28 G 56 16.09 Partly Cloudy SCT095 24.5 9.3 38% 25 75.13 0.0
04 16:15 SW 28 G 59 11.27 Partly Cloudy SCT027 SCT036 SCT065 23.8 9.5 40% 75.13 0.0
04 15:55 SW 26 G 41 16.09 Mostly Cloudy SCT065 BKN090 24.3 10.3 41% 25 75.13 0.0
Date Time (edt) Wind (kph) Vis. (km) Weather Sky Cond. Air Dwpt Max. Min. Relative Humidity Wind Chill (°C) Heat Index (°C) altimeter (cm) sea level (mb) 1 hr 3 hr 6 hr
6 hour
Temperature (ºC) Pressure Precipitation (cm)